sensor_id;sensor_type;location;lat;lon;timestamp;temperature;humidity
65203;HTU21D;51788;45.124;38.966;2023-04-07T00:01:56;9.70;88.24
65203;HTU21D;51788;45.124;38.966;2023-04-07T00:04:22;9.70;88.28
65203;HTU21D;51788;45.124;38.966;2023-04-07T00:06:48;9.71;88.35
65203;HTU21D;51788;45.124;38.966;2023-04-07T00:09:14;9.75;88.23
65203;HTU21D;51788;45.124;38.966;2023-04-07T00:11:40;9.77;88.11
65203;HTU21D;51788;45.124;38.966;2023-04-07T00:14:06;9.79;88.05
65203;HTU21D;51788;45.124;38.966;2023-04-07T00:16:32;9.74;88.29
65203;HTU21D;51788;45.124;38.966;2023-04-07T00:18:58;9.69;88.33
65203;HTU21D;51788;45.124;38.966;2023-04-07T00:21:24;9.66;88.43
65203;HTU21D;51788;45.124;38.966;2023-04-07T00:23:51;9.65;88.54
65203;HTU21D;51788;45.124;38.966;2023-04-07T00:26:17;9.65;88.46
65203;HTU21D;51788;45.124;38.966;2023-04-07T00:28:43;9.56;88.80
65203;HTU21D;51788;45.124;38.966;2023-04-07T00:31:09;9.54;88.89
65203;HTU21D;51788;45.124;38.966;2023-04-07T00:33:35;9.54;88.86
65203;HTU21D;51788;45.124;38.966;2023-04-07T00:36:01;9.56;88.84
65203;HTU21D;51788;45.124;38.966;2023-04-07T00:38:27;9.63;88.70
65203;HTU21D;51788;45.124;38.966;2023-04-07T00:40:58;9.66;88.66
65203;HTU21D;51788;45.124;38.966;2023-04-07T00:43:24;9.63;88.72
65203;HTU21D;51788;45.124;38.966;2023-04-07T00:45:51;9.63;88.73
65203;HTU21D;51788;45.124;38.966;2023-04-07T00:48:18;9.64;88.80
65203;HTU21D;51788;45.124;38.966;2023-04-07T00:50:44;9.65;88.79
65203;HTU21D;51788;45.124;38.966;2023-04-07T00:53:11;9.60;88.94
65203;HTU21D;51788;45.124;38.966;2023-04-07T00:55:37;9.65;88.99
65203;HTU21D;51788;45.124;38.966;2023-04-07T00:58:03;9.69;88.87
65203;HTU21D;51788;45.124;38.966;2023-04-07T01:00:40;9.71;89.04
65203;HTU21D;51788;45.124;38.966;2023-04-07T01:03:11;9.74;88.92
65203;HTU21D;51788;45.124;38.966;2023-04-07T01:05:49;9.68;89.15
65203;HTU21D;51788;45.124;38.966;2023-04-07T01:11:04;9.59;89.42
65203;HTU21D;51788;45.124;38.966;2023-04-07T01:13:37;9.62;89.40
65203;HTU21D;51788;45.124;38.966;2023-04-07T01:16:31;9.63;89.38
65203;HTU21D;51788;45.124;38.966;2023-04-07T01:19:05;9.70;89.06
65203;HTU21D;51788;45.124;38.966;2023-04-07T01:21:34;9.62;89.27
65203;HTU21D;51788;45.124;38.966;2023-04-07T01:24:23;9.65;89.22
65203;HTU21D;51788;45.124;38.966;2023-04-07T01:26:58;9.59;89.35
65203;HTU21D;51788;45.124;38.966;2023-04-07T01:29:41;9.63;89.50
65203;HTU21D;51788;45.124;38.966;2023-04-07T01:32:13;9.68;89.23
65203;HTU21D;51788;45.124;38.966;2023-04-07T01:34:40;9.59;89.33
65203;HTU21D;51788;45.124;38.966;2023-04-07T01:37:07;9.57;89.47
65203;HTU21D;51788;45.124;38.966;2023-04-07T01:39:34;9.50;89.60
65203;HTU21D;51788;45.124;38.966;2023-04-07T01:42:03;9.53;89.68
65203;HTU21D;51788;45.124;38.966;2023-04-07T01:44:31;9.54;89.58
65203;HTU21D;51788;45.124;38.966;2023-04-07T01:46:58;9.52;89.60
65203;HTU21D;51788;45.124;38.966;2023-04-07T01:49:25;9.54;89.68
65203;HTU21D;51788;45.124;38.966;2023-04-07T01:51:53;9.57;89.58
65203;HTU21D;51788;45.124;38.966;2023-04-07T01:54:19;9.52;89.63
65203;HTU21D;51788;45.124;38.966;2023-04-07T01:56:46;9.53;89.70
65203;HTU21D;51788;45.124;38.966;2023-04-07T01:59:12;9.55;89.57
65203;HTU21D;51788;45.124;38.966;2023-04-07T02:01:38;9.48;89.76
65203;HTU21D;51788;45.124;38.966;2023-04-07T02:06:48;9.47;89.83
65203;HTU21D;51788;45.124;38.966;2023-04-07T02:09:19;9.40;90.08
65203;HTU21D;51788;45.124;38.966;2023-04-07T02:11:46;9.21;90.47
65203;HTU21D;51788;45.124;38.966;2023-04-07T02:14:14;9.08;90.99
65203;HTU21D;51788;45.124;38.966;2023-04-07T02:16:58;8.97;91.27
65203;HTU21D;51788;45.124;38.966;2023-04-07T02:19:26;8.90;91.38
65203;HTU21D;51788;45.124;38.966;2023-04-07T02:21:52;8.85;91.40
65203;HTU21D;51788;45.124;38.966;2023-04-07T02:24:19;8.81;91.35
65203;HTU21D;51788;45.124;38.966;2023-04-07T02:26:48;8.79;91.38
65203;HTU21D;51788;45.124;38.966;2023-04-07T02:29:14;8.75;91.42
65203;HTU21D;51788;45.124;38.966;2023-04-07T02:31:42;8.74;91.36
65203;HTU21D;51788;45.124;38.966;2023-04-07T02:34:08;8.76;91.20
65203;HTU21D;51788;45.124;38.966;2023-04-07T02:36:34;8.74;91.19
65203;HTU21D;51788;45.124;38.966;2023-04-07T02:39:02;8.67;91.43
65203;HTU21D;51788;45.124;38.966;2023-04-07T02:41:28;8.65;91.44
65203;HTU21D;51788;45.124;38.966;2023-04-07T02:43:54;8.61;91.48
65203;HTU21D;51788;45.124;38.966;2023-04-07T02:46:20;8.62;91.39
65203;HTU21D;51788;45.124;38.966;2023-04-07T02:48:46;8.67;91.24
65203;HTU21D;51788;45.124;38.966;2023-04-07T02:51:12;8.70;91.02
65203;HTU21D;51788;45.124;38.966;2023-04-07T02:53:38;8.67;91.02
65203;HTU21D;51788;45.124;38.966;2023-04-07T02:56:04;8.63;91.13
65203;HTU21D;51788;45.124;38.966;2023-04-07T02:58:30;8.62;91.27
65203;HTU21D;51788;45.124;38.966;2023-04-07T03:00:56;8.61;91.25
65203;HTU21D;51788;45.124;38.966;2023-04-07T03:03:26;8.61;91.23
65203;HTU21D;51788;45.124;38.966;2023-04-07T03:06:10;8.59;91.29
65203;HTU21D;51788;45.124;38.966;2023-04-07T03:08:44;8.60;91.32
65203;HTU21D;51788;45.124;38.966;2023-04-07T03:11:11;8.58;91.38
65203;HTU21D;51788;45.124;38.966;2023-04-07T03:13:37;8.57;91.46
65203;HTU21D;51788;45.124;38.966;2023-04-07T03:16:03;8.60;91.43
65203;HTU21D;51788;45.124;38.966;2023-04-07T03:18:34;8.58;91.50
65203;HTU21D;51788;45.124;38.966;2023-04-07T03:21:00;8.59;91.53
65203;HTU21D;51788;45.124;38.966;2023-04-07T03:23:27;8.61;91.43
65203;HTU21D;51788;45.124;38.966;2023-04-07T03:25:56;8.64;91.34
65203;HTU21D;51788;45.124;38.966;2023-04-07T03:28:26;8.73;91.21
65203;HTU21D;51788;45.124;38.966;2023-04-07T03:30:53;8.80;90.95
65203;HTU21D;51788;45.124;38.966;2023-04-07T03:33:20;8.78;91.10
65203;HTU21D;51788;45.124;38.966;2023-04-07T03:35:46;8.76;91.26
65203;HTU21D;51788;45.124;38.966;2023-04-07T03:38:13;8.77;91.26
65203;HTU21D;51788;45.124;38.966;2023-04-07T03:40:40;8.82;91.12
65203;HTU21D;51788;45.124;38.966;2023-04-07T03:43:06;8.83;91.06
65203;HTU21D;51788;45.124;38.966;2023-04-07T03:45:37;8.83;91.06
65203;HTU21D;51788;45.124;38.966;2023-04-07T03:48:03;8.81;91.21
65203;HTU21D;51788;45.124;38.966;2023-04-07T03:50:30;8.79;91.21
65203;HTU21D;51788;45.124;38.966;2023-04-07T03:53:06;8.82;91.34
65203;HTU21D;51788;45.124;38.966;2023-04-07T03:55:33;8.95;91.14
65203;HTU21D;51788;45.124;38.966;2023-04-07T03:58:07;9.00;90.89
65203;HTU21D;51788;45.124;38.966;2023-04-07T04:00:35;8.91;91.09
65203;HTU21D;51788;45.124;38.966;2023-04-07T04:03:10;8.92;91.38
65203;HTU21D;51788;45.124;38.966;2023-04-07T04:05:44;8.97;91.24
65203;HTU21D;51788;45.124;38.966;2023-04-07T04:08:16;8.95;91.33
65203;HTU21D;51788;45.124;38.966;2023-04-07T04:10:42;8.98;91.33
65203;HTU21D;51788;45.124;38.966;2023-04-07T04:13:08;9.04;91.28
65203;HTU21D;51788;45.124;38.966;2023-04-07T04:15:34;9.15;91.05
65203;HTU21D;51788;45.124;38.966;2023-04-07T04:18:04;9.15;90.86
65203;HTU21D;51788;45.124;38.966;2023-04-07T04:20:30;9.15;91.06
65203;HTU21D;51788;45.124;38.966;2023-04-07T04:22:56;9.21;90.96
65203;HTU21D;51788;45.124;38.966;2023-04-07T04:25:23;9.20;90.92
65203;HTU21D;51788;45.124;38.966;2023-04-07T04:27:53;9.10;91.08
65203;HTU21D;51788;45.124;38.966;2023-04-07T04:30:21;9.07;91.25
65203;HTU21D;51788;45.124;38.966;2023-04-07T04:32:58;9.09;91.19
65203;HTU21D;51788;45.124;38.966;2023-04-07T04:35:33;9.03;91.22
65203;HTU21D;51788;45.124;38.966;2023-04-07T04:38:09;9.07;91.33
65203;HTU21D;51788;45.124;38.966;2023-04-07T04:40:38;9.12;91.14
65203;HTU21D;51788;45.124;38.966;2023-04-07T04:43:05;9.11;91.18
65203;HTU21D;51788;45.124;38.966;2023-04-07T04:45:33;9.15;91.21
65203;HTU21D;51788;45.124;38.966;2023-04-07T04:48:01;9.23;91.03
65203;HTU21D;51788;45.124;38.966;2023-04-07T04:50:27;9.31;90.93
65203;HTU21D;51788;45.124;38.966;2023-04-07T04:52:54;9.44;90.75
65203;HTU21D;51788;45.124;38.966;2023-04-07T04:55:22;9.44;90.62
65203;HTU21D;51788;45.124;38.966;2023-04-07T04:57:50;9.41;90.73
65203;HTU21D;51788;45.124;38.966;2023-04-07T05:00:23;9.35;90.95
65203;HTU21D;51788;45.124;38.966;2023-04-07T05:02:55;9.39;90.92
65203;HTU21D;51788;45.124;38.966;2023-04-07T05:05:21;9.39;90.83
65203;HTU21D;51788;45.124;38.966;2023-04-07T05:07:49;9.41;90.88
65203;HTU21D;51788;45.124;38.966;2023-04-07T05:10:16;9.36;90.92
65203;HTU21D;51788;45.124;38.966;2023-04-07T05:12:47;9.41;90.92
65203;HTU21D;51788;45.124;38.966;2023-04-07T05:15:13;9.48;90.85
65203;HTU21D;51788;45.124;38.966;2023-04-07T05:17:40;9.59;90.60
65203;HTU21D;51788;45.124;38.966;2023-04-07T05:20:11;9.57;90.57
65203;HTU21D;51788;45.124;38.966;2023-04-07T05:22:39;9.59;90.63
65203;HTU21D;51788;45.124;38.966;2023-04-07T05:25:09;9.63;90.69
65203;HTU21D;51788;45.124;38.966;2023-04-07T05:27:36;9.62;90.53
65203;HTU21D;51788;45.124;38.966;2023-04-07T05:30:09;9.53;90.76
65203;HTU21D;51788;45.124;38.966;2023-04-07T05:32:35;9.52;90.75
65203;HTU21D;51788;45.124;38.966;2023-04-07T05:35:08;9.49;90.90
65203;HTU21D;51788;45.124;38.966;2023-04-07T05:37:38;9.53;90.80
65203;HTU21D;51788;45.124;38.966;2023-04-07T05:40:06;9.51;90.76
65203;HTU21D;51788;45.124;38.966;2023-04-07T05:42:32;9.47;90.89
65203;HTU21D;51788;45.124;38.966;2023-04-07T05:44:58;9.46;90.98
65203;HTU21D;51788;45.124;38.966;2023-04-07T05:47:26;9.56;90.90
65203;HTU21D;51788;45.124;38.966;2023-04-07T05:49:52;9.75;90.60
65203;HTU21D;51788;45.124;38.966;2023-04-07T05:52:18;9.78;90.29
65203;HTU21D;51788;45.124;38.966;2023-04-07T05:54:49;9.82;90.44
65203;HTU21D;51788;45.124;38.966;2023-04-07T05:57:16;9.99;90.21
65203;HTU21D;51788;45.124;38.966;2023-04-07T05:59:44;10.13;89.92
65203;HTU21D;51788;45.124;38.966;2023-04-07T06:02:11;10.21;89.76
65203;HTU21D;51788;45.124;38.966;2023-04-07T06:04:38;10.21;89.99
65203;HTU21D;51788;45.124;38.966;2023-04-07T06:07:05;10.33;89.89
65203;HTU21D;51788;45.124;38.966;2023-04-07T06:09:31;10.29;89.89
65203;HTU21D;51788;45.124;38.966;2023-04-07T06:11:57;10.29;89.94
65203;HTU21D;51788;45.124;38.966;2023-04-07T06:14:24;10.35;90.10
65203;HTU21D;51788;45.124;38.966;2023-04-07T06:16:50;10.45;89.94
65203;HTU21D;51788;45.124;38.966;2023-04-07T06:19:16;10.48;89.91
65203;HTU21D;51788;45.124;38.966;2023-04-07T06:21:42;10.53;90.12
65203;HTU21D;51788;45.124;38.966;2023-04-07T06:24:08;10.68;89.82
65203;HTU21D;51788;45.124;38.966;2023-04-07T06:26:34;10.58;89.69
65203;HTU21D;51788;45.124;38.966;2023-04-07T06:29:01;10.57;90.02
65203;HTU21D;51788;45.124;38.966;2023-04-07T06:31:27;10.42;90.21
65203;HTU21D;51788;45.124;38.966;2023-04-07T06:33:53;10.33;90.61
65203;HTU21D;51788;45.124;38.966;2023-04-07T06:36:20;10.39;90.60
65203;HTU21D;51788;45.124;38.966;2023-04-07T06:38:46;10.45;90.55
65203;HTU21D;51788;45.124;38.966;2023-04-07T06:41:12;10.73;90.15
65203;HTU21D;51788;45.124;38.966;2023-04-07T06:43:43;10.97;89.51
65203;HTU21D;51788;45.124;38.966;2023-04-07T06:46:09;11.00;89.28
65203;HTU21D;51788;45.124;38.966;2023-04-07T06:48:35;11.05;89.35
65203;HTU21D;51788;45.124;38.966;2023-04-07T06:51:01;11.00;89.66
65203;HTU21D;51788;45.124;38.966;2023-04-07T06:53:27;11.09;89.48
65203;HTU21D;51788;45.124;38.966;2023-04-07T06:56:07;11.10;89.40
65203;HTU21D;51788;45.124;38.966;2023-04-07T06:58:34;10.98;89.79
65203;HTU21D;51788;45.124;38.966;2023-04-07T07:01:00;10.92;90.18
65203;HTU21D;51788;45.124;38.966;2023-04-07T07:03:27;11.07;89.95
65203;HTU21D;51788;45.124;38.966;2023-04-07T07:05:54;11.17;89.56
65203;HTU21D;51788;45.124;38.966;2023-04-07T07:08:24;11.11;89.67
65203;HTU21D;51788;45.124;38.966;2023-04-07T07:10:51;10.93;89.70
65203;HTU21D;51788;45.124;38.966;2023-04-07T07:13:17;10.92;90.23
65203;HTU21D;51788;45.124;38.966;2023-04-07T07:15:44;11.17;89.71
65203;HTU21D;51788;45.124;38.966;2023-04-07T07:18:11;11.30;89.26
65203;HTU21D;51788;45.124;38.966;2023-04-07T07:20:37;11.49;88.82
65203;HTU21D;51788;45.124;38.966;2023-04-07T07:23:02;11.64;88.44
65203;HTU21D;51788;45.124;38.966;2023-04-07T07:25:28;11.77;88.15
65203;HTU21D;51788;45.124;38.966;2023-04-07T07:27:54;11.79;87.95
65203;HTU21D;51788;45.124;38.966;2023-04-07T07:30:21;11.69;88.40
65203;HTU21D;51788;45.124;38.966;2023-04-07T07:32:48;11.69;88.48
65203;HTU21D;51788;45.124;38.966;2023-04-07T07:35:14;11.69;88.35
65203;HTU21D;51788;45.124;38.966;2023-04-07T07:37:40;11.55;88.78
65203;HTU21D;51788;45.124;38.966;2023-04-07T07:40:09;11.68;88.73
65203;HTU21D;51788;45.124;38.966;2023-04-07T07:42:35;11.83;88.35
65203;HTU21D;51788;45.124;38.966;2023-04-07T07:45:01;12.05;87.63
65203;HTU21D;51788;45.124;38.966;2023-04-07T07:47:27;12.07;87.33
65203;HTU21D;51788;45.124;38.966;2023-04-07T07:49:53;11.74;88.09
65203;HTU21D;51788;45.124;38.966;2023-04-07T07:52:19;11.66;88.83
65203;HTU21D;51788;45.124;38.966;2023-04-07T07:54:47;11.58;88.83
65203;HTU21D;51788;45.124;38.966;2023-04-07T07:57:13;11.45;88.89
65203;HTU21D;51788;45.124;38.966;2023-04-07T07:59:39;11.20;89.37
65203;HTU21D;51788;45.124;38.966;2023-04-07T08:02:06;11.18;89.56
65203;HTU21D;51788;45.124;38.966;2023-04-07T08:04:34;11.33;89.32
65203;HTU21D;51788;45.124;38.966;2023-04-07T08:07:01;11.37;88.88
65203;HTU21D;51788;45.124;38.966;2023-04-07T08:09:27;11.40;89.08
65203;HTU21D;51788;45.124;38.966;2023-04-07T08:11:53;11.57;88.64
65203;HTU21D;51788;45.124;38.966;2023-04-07T08:14:19;11.59;88.35
65203;HTU21D;51788;45.124;38.966;2023-04-07T08:16:48;11.46;88.49
65203;HTU21D;51788;45.124;38.966;2023-04-07T08:19:14;11.42;88.76
65203;HTU21D;51788;45.124;38.966;2023-04-07T08:21:40;11.53;88.67
65203;HTU21D;51788;45.124;38.966;2023-04-07T08:24:07;11.58;88.24
65203;HTU21D;51788;45.124;38.966;2023-04-07T08:26:33;11.69;88.03
65203;HTU21D;51788;45.124;38.966;2023-04-07T08:28:59;11.77;87.80
65203;HTU21D;51788;45.124;38.966;2023-04-07T08:31:25;11.83;87.61
65203;HTU21D;51788;45.124;38.966;2023-04-07T08:33:52;11.72;87.82
65203;HTU21D;51788;45.124;38.966;2023-04-07T08:36:23;11.61;87.87
65203;HTU21D;51788;45.124;38.966;2023-04-07T08:38:50;11.45;88.61
65203;HTU21D;51788;45.124;38.966;2023-04-07T08:41:20;11.48;88.47
65203;HTU21D;51788;45.124;38.966;2023-04-07T08:43:50;11.39;88.65
65203;HTU21D;51788;45.124;38.966;2023-04-07T08:46:19;11.30;88.96
65203;HTU21D;51788;45.124;38.966;2023-04-07T08:48:49;11.22;89.14
65203;HTU21D;51788;45.124;38.966;2023-04-07T08:51:36;11.17;89.28
65203;HTU21D;51788;45.124;38.966;2023-04-07T08:54:11;11.24;89.21
65203;HTU21D;51788;45.124;38.966;2023-04-07T08:56:38;11.37;88.77
65203;HTU21D;51788;45.124;38.966;2023-04-07T08:59:11;11.32;88.89
65203;HTU21D;51788;45.124;38.966;2023-04-07T09:01:38;11.38;88.89
65203;HTU21D;51788;45.124;38.966;2023-04-07T09:04:05;11.28;88.89
65203;HTU21D;51788;45.124;38.966;2023-04-07T09:06:32;11.39;88.96
65203;HTU21D;51788;45.124;38.966;2023-04-07T09:08:59;11.51;88.55
65203;HTU21D;51788;45.124;38.966;2023-04-07T09:11:26;11.54;88.38
65203;HTU21D;51788;45.124;38.966;2023-04-07T09:13:54;11.56;88.32
65203;HTU21D;51788;45.124;38.966;2023-04-07T09:16:20;11.45;88.50
65203;HTU21D;51788;45.124;38.966;2023-04-07T09:18:46;11.40;88.69
65203;HTU21D;51788;45.124;38.966;2023-04-07T09:21:12;11.45;88.78
65203;HTU21D;51788;45.124;38.966;2023-04-07T09:23:40;11.62;88.46
65203;HTU21D;51788;45.124;38.966;2023-04-07T09:26:22;11.77;88.07
65203;HTU21D;51788;45.124;38.966;2023-04-07T09:28:56;11.87;87.83
65203;HTU21D;51788;45.124;38.966;2023-04-07T09:31:42;11.87;87.53
65203;HTU21D;51788;45.124;38.966;2023-04-07T09:34:27;11.62;88.15
65203;HTU21D;51788;45.124;38.966;2023-04-07T09:36:54;11.45;88.84
65203;HTU21D;51788;45.124;38.966;2023-04-07T09:39:21;11.55;88.83
65203;HTU21D;51788;45.124;38.966;2023-04-07T09:41:47;11.68;88.59
65203;HTU21D;51788;45.124;38.966;2023-04-07T09:44:13;11.68;88.50
65203;HTU21D;51788;45.124;38.966;2023-04-07T09:46:58;11.61;88.63
65203;HTU21D;51788;45.124;38.966;2023-04-07T09:49:25;11.56;88.84
65203;HTU21D;51788;45.124;38.966;2023-04-07T09:51:56;11.56;89.02
65203;HTU21D;51788;45.124;38.966;2023-04-07T09:54:39;11.70;88.76
65203;HTU21D;51788;45.124;38.966;2023-04-07T09:57:07;11.76;88.61
65203;HTU21D;51788;45.124;38.966;2023-04-07T09:59:36;11.82;88.60
65203;HTU21D;51788;45.124;38.966;2023-04-07T10:02:03;11.84;88.45
65203;HTU21D;51788;45.124;38.966;2023-04-07T10:04:29;11.86;88.54
65203;HTU21D;51788;45.124;38.966;2023-04-07T10:06:56;11.85;88.63
65203;HTU21D;51788;45.124;38.966;2023-04-07T10:09:23;11.85;88.74
65203;HTU21D;51788;45.124;38.966;2023-04-07T10:11:51;11.93;88.51
65203;HTU21D;51788;45.124;38.966;2023-04-07T10:14:21;11.92;88.64
65203;HTU21D;51788;45.124;38.966;2023-04-07T10:16:50;11.86;88.86
65203;HTU21D;51788;45.124;38.966;2023-04-07T10:19:18;12.00;88.67
65203;HTU21D;51788;45.124;38.966;2023-04-07T10:21:44;12.16;88.17
65203;HTU21D;51788;45.124;38.966;2023-04-07T10:26:53;11.99;88.41
65203;HTU21D;51788;45.124;38.966;2023-04-07T10:29:22;11.94;88.58
65203;HTU21D;51788;45.124;38.966;2023-04-07T10:31:50;11.96;88.53
65203;HTU21D;51788;45.124;38.966;2023-04-07T10:34:21;11.91;88.72
65203;HTU21D;51788;45.124;38.966;2023-04-07T10:37:13;11.91;88.55
65203;HTU21D;51788;45.124;38.966;2023-04-07T10:39:39;11.99;88.62
65203;HTU21D;51788;45.124;38.966;2023-04-07T10:42:06;12.06;88.42
65203;HTU21D;51788;45.124;38.966;2023-04-07T10:47:05;12.08;88.44
65203;HTU21D;51788;45.124;38.966;2023-04-07T10:49:34;12.22;88.33
65203;HTU21D;51788;45.124;38.966;2023-04-07T10:54:36;12.59;87.35
65203;HTU21D;51788;45.124;38.966;2023-04-07T10:57:03;12.74;87.08
65203;HTU21D;51788;45.124;38.966;2023-04-07T10:59:30;12.82;86.84
65203;HTU21D;51788;45.124;38.966;2023-04-07T11:04:52;13.07;86.19
65203;HTU21D;51788;45.124;38.966;2023-04-07T11:07:18;13.18;85.94
65203;HTU21D;51788;45.124;38.966;2023-04-07T11:09:45;13.26;85.56
65203;HTU21D;51788;45.124;38.966;2023-04-07T11:12:23;13.33;85.34
65203;HTU21D;51788;45.124;38.966;2023-04-07T11:14:50;13.35;85.30
65203;HTU21D;51788;45.124;38.966;2023-04-07T11:17:16;13.38;85.13
65203;HTU21D;51788;45.124;38.966;2023-04-07T11:19:52;13.34;85.13
65203;HTU21D;51788;45.124;38.966;2023-04-07T11:22:18;13.35;85.06
65203;HTU21D;51788;45.124;38.966;2023-04-07T11:24:45;13.35;85.13
65203;HTU21D;51788;45.124;38.966;2023-04-07T11:27:12;13.39;85.01
65203;HTU21D;51788;45.124;38.966;2023-04-07T11:29:38;13.41;84.82
65203;HTU21D;51788;45.124;38.966;2023-04-07T11:32:05;13.40;84.86
65203;HTU21D;51788;45.124;38.966;2023-04-07T11:34:32;13.47;84.81
65203;HTU21D;51788;45.124;38.966;2023-04-07T11:37:21;13.47;84.78
65203;HTU21D;51788;45.124;38.966;2023-04-07T11:39:52;13.50;84.68
65203;HTU21D;51788;45.124;38.966;2023-04-07T11:42:50;13.47;84.77
65203;HTU21D;51788;45.124;38.966;2023-04-07T11:45:17;13.51;84.70
65203;HTU21D;51788;45.124;38.966;2023-04-07T11:47:46;13.48;84.61
65203;HTU21D;51788;45.124;38.966;2023-04-07T11:50:14;13.31;84.91
65203;HTU21D;51788;45.124;38.966;2023-04-07T11:52:47;13.32;85.16
65203;HTU21D;51788;45.124;38.966;2023-04-07T11:55:22;13.38;84.76
65203;HTU21D;51788;45.124;38.966;2023-04-07T11:57:51;13.26;84.97
65203;HTU21D;51788;45.124;38.966;2023-04-07T12:00:18;13.23;84.75
65203;HTU21D;51788;45.124;38.966;2023-04-07T12:02:45;13.18;84.93
65203;HTU21D;51788;45.124;38.966;2023-04-07T12:05:11;13.16;84.97
65203;HTU21D;51788;45.124;38.966;2023-04-07T12:07:38;13.15;84.99
65203;HTU21D;51788;45.124;38.966;2023-04-07T12:10:22;13.24;85.21
65203;HTU21D;51788;45.124;38.966;2023-04-07T12:12:50;13.38;85.01
65203;HTU21D;51788;45.124;38.966;2023-04-07T12:15:16;13.40;84.61
65203;HTU21D;51788;45.124;38.966;2023-04-07T12:17:47;13.35;84.76
65203;HTU21D;51788;45.124;38.966;2023-04-07T12:20:13;13.41;84.92
65203;HTU21D;51788;45.124;38.966;2023-04-07T12:22:40;13.60;84.64
65203;HTU21D;51788;45.124;38.966;2023-04-07T12:25:06;13.76;84.20
65203;HTU21D;51788;45.124;38.966;2023-04-07T12:27:32;13.76;84.19
65203;HTU21D;51788;45.124;38.966;2023-04-07T12:29:58;13.81;84.21
65203;HTU21D;51788;45.124;38.966;2023-04-07T12:32:24;13.85;84.08
65203;HTU21D;51788;45.124;38.966;2023-04-07T12:34:50;13.82;84.24
65203;HTU21D;51788;45.124;38.966;2023-04-07T12:37:16;14.04;83.83
65203;HTU21D;51788;45.124;38.966;2023-04-07T12:39:42;14.25;82.86
65203;HTU21D;51788;45.124;38.966;2023-04-07T12:42:08;14.27;82.94
65203;HTU21D;51788;45.124;38.966;2023-04-07T12:44:39;14.23;83.12
65203;HTU21D;51788;45.124;38.966;2023-04-07T12:47:05;14.23;83.17
65203;HTU21D;51788;45.124;38.966;2023-04-07T12:49:31;14.12;83.29
65203;HTU21D;51788;45.124;38.966;2023-04-07T12:51:57;14.09;83.54
65203;HTU21D;51788;45.124;38.966;2023-04-07T12:54:23;14.13;83.30
65203;HTU21D;51788;45.124;38.966;2023-04-07T12:56:49;14.10;83.10
65203;HTU21D;51788;45.124;38.966;2023-04-07T12:59:15;14.00;83.44
65203;HTU21D;51788;45.124;38.966;2023-04-07T13:01:41;14.10;83.37
65203;HTU21D;51788;45.124;38.966;2023-04-07T13:04:08;14.26;82.92
65203;HTU21D;51788;45.124;38.966;2023-04-07T13:06:34;14.42;82.45
65203;HTU21D;51788;45.124;38.966;2023-04-07T13:08:59;14.42;82.15
65203;HTU21D;51788;45.124;38.966;2023-04-07T13:11:25;14.48;82.07
65203;HTU21D;51788;45.124;38.966;2023-04-07T13:13:52;14.53;81.84
65203;HTU21D;51788;45.124;38.966;2023-04-07T13:16:18;14.55;81.73
65203;HTU21D;51788;45.124;38.966;2023-04-07T13:18:44;14.59;81.72
65203;HTU21D;51788;45.124;38.966;2023-04-07T13:21:10;14.71;81.49
65203;HTU21D;51788;45.124;38.966;2023-04-07T13:23:36;14.85;81.11
65203;HTU21D;51788;45.124;38.966;2023-04-07T13:26:02;14.87;81.04
65203;HTU21D;51788;45.124;38.966;2023-04-07T13:28:28;14.80;81.17
65203;HTU21D;51788;45.124;38.966;2023-04-07T13:30:54;14.74;81.33
65203;HTU21D;51788;45.124;38.966;2023-04-07T13:33:20;14.71;81.34
65203;HTU21D;51788;45.124;38.966;2023-04-07T13:35:46;14.67;81.44
65203;HTU21D;51788;45.124;38.966;2023-04-07T13:38:12;14.67;81.17
65203;HTU21D;51788;45.124;38.966;2023-04-07T13:40:38;14.60;81.27
65203;HTU21D;51788;45.124;38.966;2023-04-07T13:43:04;14.53;81.30
65203;HTU21D;51788;45.124;38.966;2023-04-07T13:45:30;14.44;81.40
65203;HTU21D;51788;45.124;38.966;2023-04-07T13:47:57;14.40;81.43
65203;HTU21D;51788;45.124;38.966;2023-04-07T13:50:24;14.35;81.52
65203;HTU21D;51788;45.124;38.966;2023-04-07T13:52:49;14.34;81.50
65203;HTU21D;51788;45.124;38.966;2023-04-07T13:55:15;14.40;81.29
65203;HTU21D;51788;45.124;38.966;2023-04-07T13:57:45;14.47;80.90
65203;HTU21D;51788;45.124;38.966;2023-04-07T14:00:11;14.52;80.69
65203;HTU21D;51788;45.124;38.966;2023-04-07T14:02:38;14.62;80.49
65203;HTU21D;51788;45.124;38.966;2023-04-07T14:05:05;14.63;80.40
65203;HTU21D;51788;45.124;38.966;2023-04-07T14:07:31;14.59;80.52
65203;HTU21D;51788;45.124;38.966;2023-04-07T14:09:57;14.51;80.74
65203;HTU21D;51788;45.124;38.966;2023-04-07T14:12:23;14.47;80.91
65203;HTU21D;51788;45.124;38.966;2023-04-07T14:14:49;14.40;80.94
65203;HTU21D;51788;45.124;38.966;2023-04-07T14:17:17;14.29;81.04
65203;HTU21D;51788;45.124;38.966;2023-04-07T14:19:43;14.25;81.08
65203;HTU21D;51788;45.124;38.966;2023-04-07T14:22:09;14.27;80.75
65203;HTU21D;51788;45.124;38.966;2023-04-07T14:24:35;14.35;80.65
65203;HTU21D;51788;45.124;38.966;2023-04-07T14:27:01;14.38;80.46
65203;HTU21D;51788;45.124;38.966;2023-04-07T14:29:28;14.42;80.22
65203;HTU21D;51788;45.124;38.966;2023-04-07T14:31:54;14.45;80.16
65203;HTU21D;51788;45.124;38.966;2023-04-07T14:34:20;14.44;80.21
65203;HTU21D;51788;45.124;38.966;2023-04-07T14:36:54;14.42;80.26
65203;HTU21D;51788;45.124;38.966;2023-04-07T14:39:22;14.38;80.36
65203;HTU21D;51788;45.124;38.966;2023-04-07T14:41:48;14.39;80.34
65203;HTU21D;51788;45.124;38.966;2023-04-07T14:44:15;14.43;80.15
65203;HTU21D;51788;45.124;38.966;2023-04-07T14:46:41;14.41;79.88
65203;HTU21D;51788;45.124;38.966;2023-04-07T14:49:07;14.40;79.78
65203;HTU21D;51788;45.124;38.966;2023-04-07T14:51:33;14.36;79.98
65203;HTU21D;51788;45.124;38.966;2023-04-07T14:53:59;14.33;80.11
65203;HTU21D;51788;45.124;38.966;2023-04-07T14:56:25;14.29;80.20
65203;HTU21D;51788;45.124;38.966;2023-04-07T14:58:51;14.23;80.18
65203;HTU21D;51788;45.124;38.966;2023-04-07T15:01:17;14.21;80.21
65203;HTU21D;51788;45.124;38.966;2023-04-07T15:03:43;14.20;80.24
65203;HTU21D;51788;45.124;38.966;2023-04-07T15:06:11;14.15;80.24
65203;HTU21D;51788;45.124;38.966;2023-04-07T15:08:39;14.12;80.35
65203;HTU21D;51788;45.124;38.966;2023-04-07T15:11:08;14.10;80.46
65203;HTU21D;51788;45.124;38.966;2023-04-07T15:13:35;14.05;80.48
65203;HTU21D;51788;45.124;38.966;2023-04-07T15:16:08;14.01;80.65
65203;HTU21D;51788;45.124;38.966;2023-04-07T15:18:38;14.00;80.65
65203;HTU21D;51788;45.124;38.966;2023-04-07T15:21:05;13.98;80.74
65203;HTU21D;51788;45.124;38.966;2023-04-07T15:23:31;13.96;80.83
65203;HTU21D;51788;45.124;38.966;2023-04-07T15:25:58;13.93;80.89
65203;HTU21D;51788;45.124;38.966;2023-04-07T15:28:24;13.90;80.98
65203;HTU21D;51788;45.124;38.966;2023-04-07T15:30:50;13.83;81.13